createdAt,value
2017-08-07T00:00:15.000Z,0
2017-08-07T00:01:17.777Z,0
2017-08-07T00:02:20.191Z,0
2017-08-07T00:03:23.620Z,0
2017-08-07T00:04:26.718Z,0
2017-08-07T00:05:29.498Z,0
2017-08-07T00:06:32.244Z,0
2017-08-07T00:07:35.004Z,0
2017-08-07T00:08:37.423Z,0
2017-08-07T00:09:40.537Z,0
2017-08-07T00:10:42.952Z,0
2017-08-07T00:11:45.701Z,0
2017-08-07T00:12:48.462Z,0
2017-08-07T00:13:50.877Z,0
2017-08-07T00:14:53.620Z,0
2017-08-07T00:15:56.385Z,0
2017-08-07T00:16:58.791Z,0
2017-08-07T00:18:01.204Z,0
2017-08-07T00:19:04.302Z,0
2017-08-07T00:20:06.718Z,0
2017-08-07T00:21:09.134Z,0
2017-08-07T00:22:11.889Z,0
2017-08-07T00:23:14.300Z,0
2017-08-07T00:24:17.050Z,0
2017-08-07T00:25:19.483Z,0
2017-08-07T00:26:22.228Z,0
2017-08-07T00:27:24.642Z,0
2017-08-07T00:28:27.069Z,0
2017-08-07T00:29:29.479Z,0
2017-08-07T00:30:32.234Z,0
2017-08-07T00:31:34.658Z,0
2017-08-07T00:32:37.087Z,0
2017-08-07T00:33:40.182Z,0
2017-08-07T00:34:42.603Z,0
2017-08-07T00:35:45.022Z,0
2017-08-07T00:36:47.791Z,0
2017-08-07T00:37:50.210Z,0
2017-08-07T00:38:53.312Z,0
2017-08-07T00:39:56.058Z,0
2017-08-07T00:40:58.470Z,0
2017-08-07T00:42:00.895Z,0
2017-08-07T00:43:03.665Z,0
2017-08-07T00:44:06.079Z,0
2017-08-07T00:45:08.499Z,0
2017-08-07T00:46:10.926Z,0
2017-08-07T00:47:13.341Z,0
2017-08-07T00:48:15.760Z,0
2017-08-07T00:49:18.507Z,0
2017-08-07T00:50:21.272Z,0
2017-08-07T00:51:23.690Z,0
2017-08-07T00:52:26.110Z,0
2017-08-07T00:53:28.535Z,0
2017-08-07T00:54:31.276Z,0
2017-08-07T00:55:34.045Z,0
2017-08-07T00:56:36.467Z,0
2017-08-07T00:57:39.568Z,0
2017-08-07T00:58:41.992Z,0
2017-08-07T00:59:45.103Z,0
2017-08-07T01:00:47.522Z,0
2017-08-07T01:01:49.947Z,0
2017-08-07T01:02:52.711Z,0
2017-08-07T01:03:55.113Z,0
2017-08-07T01:04:57.525Z,0
2017-08-07T01:05:59.941Z,0
2017-08-07T01:07:02.714Z,0
2017-08-07T01:08:05.453Z,0
2017-08-07T01:09:08.200Z,0
2017-08-07T01:10:10.626Z,0
2017-08-07T01:11:13.394Z,0
2017-08-07T01:12:15.805Z,0
2017-08-07T01:13:18.223Z,0
2017-08-07T01:14:20.639Z,0
2017-08-07T01:15:23.065Z,0
2017-08-07T01:16:25.474Z,0
2017-08-07T01:17:27.894Z,0
2017-08-07T01:18:30.672Z,0
2017-08-07T01:19:33.425Z,0
2017-08-07T01:20:35.847Z,0
2017-08-07T01:21:38.601Z,0
2017-08-07T01:22:41.014Z,0
2017-08-07T01:23:43.773Z,0
2017-08-07T01:24:46.182Z,0
2017-08-07T01:25:48.602Z,0
2017-08-07T01:26:51.017Z,0
2017-08-07T01:27:53.430Z,0
2017-08-07T01:28:55.841Z,0
2017-08-07T01:29:58.280Z,0
2017-08-07T01:31:00.706Z,0
2017-08-07T01:32:03.465Z,0
2017-08-07T01:33:05.890Z,0
2017-08-07T01:34:08.309Z,0
2017-08-07T01:35:10.721Z,0
2017-08-07T01:36:13.140Z,0
2017-08-07T01:37:15.556Z,0
2017-08-07T01:38:17.976Z,0
2017-08-07T01:39:20.727Z,0
2017-08-07T01:40:23.852Z,0
2017-08-07T01:41:26.264Z,0
2017-08-07T01:42:28.710Z,0
2017-08-07T01:43:31.140Z,0
2017-08-07T01:44:33.551Z,0
2017-08-07T01:45:35.959Z,0
2017-08-07T01:46:38.730Z,0
2017-08-07T01:47:41.484Z,0
2017-08-07T01:48:43.903Z,0
2017-08-07T01:49:46.670Z,0
2017-08-07T01:50:49.088Z,0
2017-08-07T01:51:51.511Z,0
2017-08-07T01:52:53.928Z,0
2017-08-07T01:53:56.335Z,0
2017-08-07T01:54:59.428Z,0
2017-08-07T01:56:01.844Z,0
2017-08-07T01:57:04.261Z,0
2017-08-07T01:58:06.683Z,0
2017-08-07T01:59:09.454Z,0
2017-08-07T02:00:11.873Z,0
2017-08-07T02:01:14.664Z,0
2017-08-07T02:02:17.073Z,0
2017-08-07T02:03:19.489Z,0
2017-08-07T02:04:22.241Z,0
2017-08-07T02:05:25.000Z,0
2017-08-07T02:06:27.764Z,0
2017-08-07T02:07:30.174Z,0
2017-08-07T02:08:33.292Z,0
2017-08-07T02:09:36.044Z,0
2017-08-07T02:10:38.450Z,0
2017-08-07T02:11:40.885Z,0
2017-08-07T02:12:43.289Z,0
2017-08-07T02:13:45.706Z,0
2017-08-07T02:14:48.801Z,0
2017-08-07T02:15:51.217Z,0
2017-08-07T02:16:53.638Z,0
2017-08-07T02:17:56.069Z,0
2017-08-07T02:18:58.477Z,0
2017-08-07T02:20:00.912Z,0
2017-08-07T02:21:03.337Z,0
2017-08-07T02:22:06.425Z,0
2017-08-07T02:23:09.181Z,0
2017-08-07T02:24:11.602Z,0
2017-08-07T02:25:14.021Z,0
2017-08-07T02:26:17.796Z,0
2017-08-07T02:27:20.202Z,0
2017-08-07T02:28:22.612Z,0
2017-08-07T02:29:25.031Z,0
2017-08-07T02:30:27.792Z,0
2017-08-07T02:31:30.200Z,0
2017-08-07T02:32:32.957Z,0
2017-08-07T02:33:35.374Z,0
2017-08-07T02:34:37.807Z,0
2017-08-07T02:35:40.221Z,0
2017-08-07T02:36:43.655Z,0
2017-08-07T02:37:46.066Z,0
2017-08-07T02:38:49.172Z,0
2017-08-07T02:39:51.599Z,0
2017-08-07T02:40:54.346Z,0
2017-08-07T02:41:56.763Z,0
2017-08-07T02:42:59.872Z,0
2017-08-07T02:44:02.292Z,0
2017-08-07T02:45:05.386Z,0
2017-08-07T02:46:08.472Z,0
2017-08-07T02:47:10.881Z,0
2017-08-07T02:48:13.308Z,0
2017-08-07T02:49:16.743Z,0
2017-08-07T02:50:19.183Z,0
2017-08-07T02:51:21.925Z,0
2017-08-07T02:52:24.687Z,0
2017-08-07T02:53:27.456Z,0
2017-08-07T02:54:30.214Z,0
2017-08-07T02:55:32.968Z,0
2017-08-07T02:56:35.394Z,0
2017-08-07T02:57:37.811Z,0
2017-08-07T02:58:40.228Z,4
2017-08-07T02:59:42.646Z,4
2017-08-07T03:00:45.042Z,0
2017-08-07T03:01:47.809Z,0
2017-08-07T03:02:50.583Z,4
2017-08-07T03:03:53.018Z,4
2017-08-07T03:04:55.426Z,4
2017-08-07T03:05:58.180Z,4
2017-08-07T03:07:00.619Z,4
2017-08-07T03:08:03.706Z,8
2017-08-07T03:09:06.803Z,8
2017-08-07T03:10:09.235Z,12
2017-08-07T03:11:11.997Z,12
2017-08-07T03:12:14.758Z,12
2017-08-07T03:13:17.513Z,16
2017-08-07T03:14:20.272Z,20
2017-08-07T03:15:23.032Z,20
2017-08-07T03:16:25.442Z,24
2017-08-07T03:17:28.204Z,28
2017-08-07T03:18:30.963Z,32
2017-08-07T03:19:33.371Z,36
2017-08-07T03:20:36.129Z,40
2017-08-07T03:21:38.902Z,48
2017-08-07T03:22:41.670Z,56
2017-08-07T03:23:44.080Z,60
2017-08-07T03:24:46.524Z,68
2017-08-07T03:25:48.929Z,80
2017-08-07T03:26:51.351Z,88
2017-08-07T03:27:54.093Z,100
2017-08-07T03:28:57.194Z,108
2017-08-07T03:29:59.630Z,124
2017-08-07T03:31:02.390Z,140
2017-08-07T03:32:04.816Z,156
2017-08-07T03:33:07.236Z,172
2017-08-07T03:34:09.645Z,188
2017-08-07T03:35:12.056Z,208
2017-08-07T03:36:14.792Z,228
2017-08-07T03:37:17.579Z,248
2017-08-07T03:38:20.335Z,268
2017-08-07T03:39:23.079Z,292
2017-08-07T03:40:25.501Z,320
2017-08-07T03:41:27.913Z,344
2017-08-07T03:42:30.723Z,372
2017-08-07T03:43:33.481Z,404
2017-08-07T03:44:35.896Z,432
2017-08-07T03:45:38.318Z,468
2017-08-07T03:46:41.067Z,500
2017-08-07T03:47:43.499Z,532
2017-08-07T03:48:45.916Z,568
2017-08-07T03:49:48.328Z,604
2017-08-07T03:50:50.739Z,640
2017-08-07T03:51:53.832Z,676
2017-08-07T03:52:56.245Z,716
2017-08-07T03:53:58.665Z,760
2017-08-07T03:55:01.406Z,804
2017-08-07T03:56:04.160Z,844
2017-08-07T03:57:06.570Z,888
2017-08-07T03:58:09.004Z,928
2017-08-07T03:59:12.447Z,976
2017-08-07T04:00:15.202Z,1020
2017-08-07T04:01:17.623Z,1068
2017-08-07T04:02:20.032Z,1116
2017-08-07T04:03:22.447Z,1160
2017-08-07T04:04:24.867Z,1208
2017-08-07T04:05:27.625Z,1256
2017-08-07T04:06:30.382Z,1304
2017-08-07T04:07:33.144Z,1352
2017-08-07T04:08:35.663Z,1400
2017-08-07T04:09:38.533Z,1444
2017-08-07T04:10:41.057Z,1496
2017-08-07T04:11:43.959Z,1548
2017-08-07T04:12:46.805Z,1592
2017-08-07T04:13:49.655Z,1644
2017-08-07T04:14:52.510Z,1688
2017-08-07T04:15:55.113Z,1732
2017-08-07T04:16:57.965Z,1780
2017-08-07T04:18:00.804Z,1828
2017-08-07T04:19:03.340Z,1876
2017-08-07T04:20:06.531Z,1920
2017-08-07T04:21:09.059Z,1964
2017-08-07T04:22:11.596Z,2012
2017-08-07T04:23:14.457Z,2056
2017-08-07T04:24:17.638Z,2104
2017-08-07T04:25:20.177Z,2148
2017-08-07T04:26:23.366Z,2196
2017-08-07T04:27:26.588Z,2240
2017-08-07T04:28:29.107Z,2284
2017-08-07T04:29:31.967Z,2328
2017-08-07T04:30:34.558Z,2372
2017-08-07T04:31:37.079Z,2416
2017-08-07T04:32:39.943Z,2464
2017-08-07T04:33:42.814Z,2512
2017-08-07T04:34:45.349Z,2552
2017-08-07T04:35:47.863Z,2604
2017-08-07T04:36:50.724Z,2648
2017-08-07T04:37:53.227Z,2692
2017-08-07T04:38:55.744Z,2736
2017-08-07T04:39:58.272Z,2784
2017-08-07T04:41:00.762Z,2828
2017-08-07T04:42:03.638Z,2872
2017-08-07T04:43:07.219Z,2920
2017-08-07T04:44:10.404Z,2964
2017-08-07T04:45:13.596Z,3008
2017-08-07T04:46:16.434Z,3040
2017-08-07T04:47:19.315Z,3076
2017-08-07T04:48:22.498Z,3112
2017-08-07T04:49:25.001Z,3148
2017-08-07T04:50:27.504Z,3184
2017-08-07T04:51:30.007Z,3224
2017-08-07T04:52:32.871Z,3260
2017-08-07T04:53:35.395Z,3296
2017-08-07T04:54:38.239Z,3332
2017-08-07T04:55:41.122Z,3368
2017-08-07T04:56:43.632Z,3404
2017-08-07T04:57:46.135Z,3436
2017-08-07T04:58:49.001Z,3472
2017-08-07T04:59:51.520Z,3504
2017-08-07T05:00:54.381Z,3540
2017-08-07T05:01:57.244Z,3572
2017-08-07T05:02:59.776Z,3608
2017-08-07T05:04:02.630Z,3644
2017-08-07T05:05:05.146Z,3684
2017-08-07T05:06:08.052Z,3720
2017-08-07T05:07:10.547Z,3768
2017-08-07T05:08:13.733Z,3804
2017-08-07T05:09:16.230Z,3844
2017-08-07T05:10:18.728Z,3876
2017-08-07T05:11:21.259Z,3924
2017-08-07T05:12:23.761Z,3956
2017-08-07T05:13:26.272Z,3988
2017-08-07T05:14:28.785Z,4032
2017-08-07T05:15:31.324Z,4072
2017-08-07T05:16:33.836Z,4116
2017-08-07T05:17:37.030Z,4156
2017-08-07T05:18:39.878Z,4204
2017-08-07T05:19:42.393Z,4248
2017-08-07T05:20:45.254Z,4292
2017-08-07T05:21:47.751Z,4336
2017-08-07T05:22:50.615Z,4388
2017-08-07T05:23:53.136Z,4428
2017-08-07T05:24:55.619Z,4472
2017-08-07T05:25:59.170Z,4520
2017-08-07T05:27:01.671Z,4572
2017-08-07T05:28:04.169Z,4624
2017-08-07T05:29:07.361Z,4672
2017-08-07T05:30:09.864Z,4716
2017-08-07T05:31:12.700Z,4752
2017-08-07T05:32:15.198Z,4788
2017-08-07T05:33:18.070Z,4824
2017-08-07T05:34:20.571Z,4872
2017-08-07T05:35:23.090Z,4908
2017-08-07T05:36:25.600Z,4964
2017-08-07T05:37:28.098Z,4996
2017-08-07T05:38:30.948Z,5040
2017-08-07T05:39:33.462Z,5052
2017-08-07T05:40:35.973Z,5104
2017-08-07T05:41:38.473Z,5184
2017-08-07T05:42:40.978Z,5248
2017-08-07T05:43:43.819Z,5308
2017-08-07T05:44:46.337Z,5356
2017-08-07T05:45:48.850Z,5408
2017-08-07T05:46:51.359Z,5456
2017-08-07T05:47:54.594Z,5496
2017-08-07T05:48:57.100Z,5524
2017-08-07T05:49:59.955Z,5560
2017-08-07T05:51:03.472Z,5580
2017-08-07T05:52:06.004Z,5628
2017-08-07T05:53:08.511Z,5680
2017-08-07T05:54:11.013Z,5716
2017-08-07T05:55:13.515Z,5780
2017-08-07T05:56:16.021Z,5816
2017-08-07T05:57:18.883Z,5884
2017-08-07T05:58:21.734Z,5928
2017-08-07T05:59:24.236Z,5976
2017-08-07T06:00:27.796Z,6024
2017-08-07T06:01:30.672Z,6068
2017-08-07T06:02:33.172Z,6104
2017-08-07T06:03:35.680Z,6140
2017-08-07T06:04:38.229Z,6164
2017-08-07T06:05:41.079Z,6192
2017-08-07T06:06:43.568Z,6224
2017-08-07T06:07:46.090Z,6252
2017-08-07T06:08:48.609Z,6280
2017-08-07T06:09:51.458Z,6344
2017-08-07T06:10:53.978Z,6404
2017-08-07T06:11:56.510Z,6444
2017-08-07T06:12:59.358Z,6496
2017-08-07T06:14:01.893Z,6568
2017-08-07T06:15:05.105Z,6612
2017-08-07T06:16:08.280Z,6664
2017-08-07T06:17:10.824Z,6708
2017-08-07T06:18:13.676Z,6736
2017-08-07T06:19:16.234Z,6736
2017-08-07T06:20:19.415Z,6728
2017-08-07T06:21:22.607Z,6716
2017-08-07T06:22:25.790Z,6716
2017-08-07T06:23:28.324Z,6764
2017-08-07T06:24:31.181Z,6852
2017-08-07T06:25:33.735Z,6916
2017-08-07T06:26:36.237Z,6964
2017-08-07T06:27:39.092Z,7016
2017-08-07T06:28:41.944Z,7052
2017-08-07T06:29:45.148Z,7112
2017-08-07T06:30:47.987Z,7188
2017-08-07T06:31:50.510Z,7244
2017-08-07T06:32:53.346Z,7316
2017-08-07T06:33:56.216Z,7376
2017-08-07T06:34:58.728Z,7428
2017-08-07T06:36:01.242Z,7472
2017-08-07T06:37:03.761Z,7520
2017-08-07T06:38:06.262Z,7556
2017-08-07T06:39:08.758Z,7624
2017-08-07T06:40:11.312Z,7676
2017-08-07T06:41:13.825Z,7748
2017-08-07T06:42:16.350Z,7800
2017-08-07T06:43:19.215Z,7856
2017-08-07T06:44:22.066Z,7920
2017-08-07T06:45:24.562Z,7980
2017-08-07T06:46:27.067Z,8044
2017-08-07T06:47:29.910Z,8116
2017-08-07T06:48:32.412Z,8188
2017-08-07T06:49:34.932Z,8236
2017-08-07T06:50:37.432Z,8308
2017-08-07T06:51:39.936Z,8356
2017-08-07T06:52:43.456Z,8424
2017-08-07T06:53:46.341Z,8496
2017-08-07T06:54:48.862Z,8588
2017-08-07T06:55:51.738Z,8636
2017-08-07T06:56:54.588Z,8728
2017-08-07T06:57:57.100Z,8804
2017-08-07T06:59:00.321Z,8872
2017-08-07T07:00:03.176Z,8908
2017-08-07T07:01:06.036Z,9004
2017-08-07T07:02:08.556Z,9160
2017-08-07T07:03:11.078Z,9292
2017-08-07T07:04:13.573Z,9376
2017-08-07T07:05:16.091Z,9464
2017-08-07T07:06:18.616Z,9568
2017-08-07T07:07:21.471Z,9644
2017-08-07T07:08:23.998Z,9712
2017-08-07T07:09:26.844Z,9800
2017-08-07T07:10:29.365Z,9924
2017-08-07T07:11:31.890Z,10068
2017-08-07T07:12:34.397Z,10196
2017-08-07T07:13:37.277Z,10360
2017-08-07T07:14:40.135Z,10564
2017-08-07T07:15:42.643Z,10724
2017-08-07T07:16:45.510Z,10896
2017-08-07T07:17:48.367Z,10980
2017-08-07T07:18:50.877Z,11160
2017-08-07T07:19:53.731Z,11364
2017-08-07T07:20:56.587Z,11560
2017-08-07T07:21:59.127Z,11708
2017-08-07T07:23:01.650Z,11812
2017-08-07T07:24:04.881Z,11876
2017-08-07T07:25:07.374Z,11936
2017-08-07T07:26:10.237Z,12064
2017-08-07T07:27:12.754Z,12268
2017-08-07T07:28:15.601Z,12488
2017-08-07T07:29:18.476Z,12616
2017-08-07T07:30:20.989Z,12724
2017-08-07T07:31:24.179Z,12832
2017-08-07T07:32:27.038Z,12932
2017-08-07T07:33:29.584Z,13028
2017-08-07T07:34:32.461Z,13184
2017-08-07T07:35:34.970Z,13360
2017-08-07T07:36:37.487Z,13472
2017-08-07T07:37:40.352Z,13652
2017-08-07T07:38:42.870Z,13836
2017-08-07T07:39:45.398Z,14068
2017-08-07T07:40:47.900Z,14364
2017-08-07T07:41:50.422Z,14608
2017-08-07T07:42:52.931Z,14820
2017-08-07T07:43:55.804Z,15056
2017-08-07T07:44:58.985Z,15264
2017-08-07T07:46:01.520Z,15540
2017-08-07T07:47:04.357Z,15716
2017-08-07T07:48:06.884Z,15808
2017-08-07T07:49:10.419Z,16000
2017-08-07T07:50:12.936Z,16072
2017-08-07T07:51:15.818Z,16160
2017-08-07T07:52:18.342Z,16248
2017-08-07T07:53:21.216Z,16220
2017-08-07T07:54:23.758Z,16188
2017-08-07T07:55:26.298Z,16148
2017-08-07T07:56:29.488Z,16056
2017-08-07T07:57:31.993Z,15924
2017-08-07T07:58:34.531Z,15804
2017-08-07T07:59:37.717Z,15784
2017-08-07T08:00:40.928Z,15756
2017-08-07T08:01:43.453Z,15708
2017-08-07T08:02:45.974Z,15824
2017-08-07T08:03:48.480Z,15808
2017-08-07T08:04:51.002Z,15748
2017-08-07T08:05:54.222Z,15740
2017-08-07T08:06:57.085Z,15660
2017-08-07T08:07:59.947Z,15620
2017-08-07T08:09:02.459Z,15620
2017-08-07T08:10:05.336Z,15700
2017-08-07T08:11:08.533Z,15552
2017-08-07T08:12:11.384Z,15604
2017-08-07T08:13:13.885Z,15764
2017-08-07T08:14:16.419Z,15880
2017-08-07T08:15:19.294Z,15956
2017-08-07T08:16:21.809Z,16116
2017-08-07T08:17:24.323Z,16308
2017-08-07T08:18:26.856Z,19400
2017-08-07T08:19:29.711Z,31712
2017-08-07T08:20:32.261Z,25856
2017-08-07T08:21:34.780Z,18360
2017-08-07T08:22:38.297Z,17964
2017-08-07T08:23:40.814Z,17660
2017-08-07T08:24:43.333Z,21344
2017-08-07T08:25:46.180Z,26496
2017-08-07T08:26:49.733Z,29120
2017-08-07T08:27:52.586Z,30112
2017-08-07T08:28:55.457Z,25024
2017-08-07T08:29:58.321Z,35104
2017-08-07T08:31:00.862Z,71488
2017-08-07T08:32:03.391Z,99872
2017-08-07T08:33:05.923Z,101760
2017-08-07T08:34:08.433Z,98624
2017-08-07T08:35:10.945Z,96512
2017-08-07T08:36:14.135Z,89504
2017-08-07T08:37:17.011Z,79296
2017-08-07T08:38:19.860Z,74944
2017-08-07T08:39:22.731Z,75264
2017-08-07T08:40:25.234Z,76608
2017-08-07T08:41:27.764Z,84032
2017-08-07T08:42:30.286Z,87200
2017-08-07T08:43:32.806Z,86048
2017-08-07T08:44:35.324Z,88384
2017-08-07T08:45:38.198Z,94944
2017-08-07T08:46:41.059Z,98304
2017-08-07T08:47:43.603Z,92320
2017-08-07T08:48:46.462Z,86272
2017-08-07T08:49:49.315Z,85952
2017-08-07T08:50:51.824Z,90496
2017-08-07T08:51:54.712Z,94912
2017-08-07T08:52:57.221Z,107744
2017-08-07T08:54:00.109Z,111072
2017-08-07T08:55:02.627Z,107552
2017-08-07T08:56:05.493Z,110464
2017-08-07T08:57:08.684Z,99520
2017-08-07T08:58:11.216Z,87424
2017-08-07T08:59:13.724Z,89184
2017-08-07T09:00:16.597Z,91328
2017-08-07T09:01:20.133Z,89504
2017-08-07T09:02:23.347Z,89600
2017-08-07T09:03:25.851Z,81536
2017-08-07T09:04:28.376Z,88352
2017-08-07T09:05:31.595Z,95360
2017-08-07T09:06:34.125Z,93344
2017-08-07T09:07:37.023Z,100288
2017-08-07T09:08:39.886Z,100928
2017-08-07T09:09:43.121Z,95232
2017-08-07T09:10:45.652Z,97760
2017-08-07T09:11:48.534Z,100864
2017-08-07T09:12:51.380Z,95232
2017-08-07T09:13:53.909Z,99296
2017-08-07T09:14:56.423Z,107808
2017-08-07T09:15:59.298Z,117152
2017-08-07T09:17:03.180Z,128416
2017-08-07T09:18:06.384Z,115904
2017-08-07T09:19:09.240Z,94080
2017-08-07T09:20:12.113Z,94112
2017-08-07T09:21:14.626Z,100256
2017-08-07T09:22:17.142Z,102816
2017-08-07T09:23:19.653Z,102656
2017-08-07T09:24:22.511Z,104960
2017-08-07T09:25:25.393Z,113728
2017-08-07T09:26:27.948Z,106688
2017-08-07T09:27:30.476Z,99968
2017-08-07T09:28:33.016Z,102016
2017-08-07T09:29:35.534Z,106496
2017-08-07T09:30:38.044Z,39872
2017-08-07T09:31:41.246Z,111136
2017-08-07T09:32:43.761Z,103840
2017-08-07T09:33:46.294Z,83872
2017-08-07T09:34:49.157Z,21760
2017-08-07T09:35:52.029Z,38432
2017-08-07T09:36:54.549Z,127584
2017-08-07T09:37:57.071Z,23264
2017-08-07T09:38:59.935Z,116736
2017-08-07T09:40:02.809Z,85056
2017-08-07T09:41:06.355Z,106336
2017-08-07T09:42:08.875Z,100320
2017-08-07T09:43:11.406Z,19644
2017-08-07T09:44:13.933Z,14952
2017-08-07T09:45:16.833Z,13960
2017-08-07T09:46:19.694Z,13764
2017-08-07T09:47:22.557Z,13836
2017-08-07T09:48:25.079Z,14588
2017-08-07T09:49:27.596Z,15136
2017-08-07T09:50:30.464Z,15980
2017-08-07T09:51:33.334Z,17536
2017-08-07T09:52:36.210Z,18664
2017-08-07T09:53:38.759Z,18180
2017-08-07T09:54:41.613Z,16424
2017-08-07T09:55:44.465Z,17340
2017-08-07T09:56:46.997Z,19500
2017-08-07T09:57:50.205Z,36512
2017-08-07T09:58:53.417Z,119712
2017-08-07T09:59:56.292Z,72160
2017-08-07T10:00:59.163Z,33856
2017-08-07T10:02:01.688Z,143552
2017-08-07T10:03:04.874Z,129760
2017-08-07T10:04:07.740Z,124800
2017-08-07T10:05:10.272Z,69376
2017-08-07T10:06:12.788Z,126016
2017-08-07T10:07:15.324Z,136256
2017-08-07T10:08:17.837Z,132800
2017-08-07T10:09:20.340Z,139840
2017-08-07T10:10:23.233Z,145504
2017-08-07T10:11:26.108Z,139104
2017-08-07T10:12:28.624Z,133760
2017-08-07T10:13:31.155Z,146336
2017-08-07T10:14:34.016Z,148160
2017-08-07T10:15:36.886Z,141984
2017-08-07T10:16:40.446Z,81376
2017-08-07T10:17:42.968Z,34912
2017-08-07T10:18:45.490Z,28864
2017-08-07T10:19:48.364Z,115648
2017-08-07T10:20:50.886Z,16380
2017-08-07T10:21:54.089Z,15892
2017-08-07T10:22:56.937Z,15316
2017-08-07T10:23:59.453Z,16084
2017-08-07T10:25:01.981Z,24384
2017-08-07T10:26:04.840Z,88768
2017-08-07T10:27:07.700Z,32544
2017-08-07T10:28:10.563Z,137056
2017-08-07T10:29:13.096Z,138784
2017-08-07T10:30:15.618Z,135296
2017-08-07T10:31:18.816Z,135776
2017-08-07T10:32:21.343Z,140576
2017-08-07T10:33:23.872Z,140512
2017-08-07T10:34:26.769Z,139264
2017-08-07T10:35:29.285Z,135360
2017-08-07T10:36:32.136Z,134848
2017-08-07T10:37:34.661Z,144864
2017-08-07T10:38:37.193Z,151552
2017-08-07T10:39:40.058Z,148608
2017-08-07T10:40:42.584Z,144288
2017-08-07T10:41:45.459Z,33504
2017-08-07T10:42:47.979Z,142080
2017-08-07T10:43:50.521Z,137728
2017-08-07T10:44:53.368Z,141216
2017-08-07T10:45:55.915Z,148832
2017-08-07T10:46:58.422Z,149280
2017-08-07T10:48:00.945Z,152384
2017-08-07T10:49:03.817Z,151744
2017-08-07T10:50:06.359Z,143488
2017-08-07T10:51:08.882Z,138880
2017-08-07T10:52:11.763Z,135584
2017-08-07T10:53:14.277Z,125952
2017-08-07T10:54:17.151Z,127264
2017-08-07T10:55:19.683Z,133888
2017-08-07T10:56:22.195Z,149888
2017-08-07T10:57:24.731Z,145760
2017-08-07T10:58:27.286Z,55968
2017-08-07T10:59:30.481Z,42816
2017-08-07T11:00:33.684Z,22528
2017-08-07T11:01:36.551Z,29472
2017-08-07T11:02:39.092Z,128864
2017-08-07T11:03:41.624Z,30336
2017-08-07T11:04:44.139Z,28832
2017-08-07T11:05:46.659Z,130560
2017-08-07T11:06:49.167Z,28992
2017-08-07T11:07:51.702Z,35008
2017-08-07T11:08:54.570Z,130880
2017-08-07T11:09:57.091Z,153248
2017-08-07T11:11:01.004Z,31712
2017-08-07T11:12:03.529Z,156448
2017-08-07T11:13:06.400Z,155936
2017-08-07T11:14:09.273Z,142848
2017-08-07T11:15:11.803Z,133888
2017-08-07T11:16:14.325Z,135360
2017-08-07T11:17:17.198Z,140800
2017-08-07T11:18:19.716Z,142400
2017-08-07T11:19:22.584Z,140000
2017-08-07T11:20:25.466Z,136576
2017-08-07T11:21:27.980Z,131232
2017-08-07T11:22:31.185Z,124096
2017-08-07T11:23:33.701Z,124160
2017-08-07T11:24:36.227Z,134464
2017-08-07T11:25:38.753Z,141568
2017-08-07T11:26:41.282Z,142368
2017-08-07T11:27:44.138Z,144064
2017-08-07T11:28:46.669Z,115552
2017-08-07T11:29:49.535Z,37216
2017-08-07T11:30:52.410Z,52928
2017-08-07T11:31:54.913Z,138208
2017-08-07T11:32:57.442Z,30816
2017-08-07T11:33:59.982Z,96864
2017-08-07T11:35:02.502Z,153600
2017-08-07T11:36:05.710Z,151200
2017-08-07T11:37:08.230Z,150752
2017-08-07T11:38:11.476Z,145952
2017-08-07T11:39:14.691Z,135744
2017-08-07T11:40:17.228Z,107648
2017-08-07T11:41:20.104Z,112768
2017-08-07T11:42:23.673Z,107520
2017-08-07T11:43:26.213Z,132192
2017-08-07T11:44:29.793Z,136128
2017-08-07T11:45:32.337Z,128416
2017-08-07T11:46:34.849Z,121376
2017-08-07T11:47:37.737Z,133696
2017-08-07T11:48:40.255Z,92960
2017-08-07T11:49:42.785Z,47072
2017-08-07T11:50:45.303Z,32672
2017-08-07T11:51:48.530Z,33216
2017-08-07T11:52:51.434Z,33408
2017-08-07T11:53:53.953Z,33792
2017-08-07T11:54:56.483Z,43584
2017-08-07T11:55:59.016Z,135584
2017-08-07T11:57:01.897Z,138016
2017-08-07T11:58:04.457Z,39744
2017-08-07T11:59:07.327Z,35968
2017-08-07T12:00:09.846Z,40224
2017-08-07T12:01:12.383Z,54784
2017-08-07T12:02:14.907Z,33600
2017-08-07T12:03:17.454Z,32960
2017-08-07T12:04:20.666Z,34848
2017-08-07T12:05:23.200Z,34496
2017-08-07T12:06:25.716Z,32928
2017-08-07T12:07:28.603Z,31776
2017-08-07T12:08:31.167Z,32640
2017-08-07T12:09:34.024Z,38144
2017-08-07T12:10:36.557Z,96352
2017-08-07T12:11:39.088Z,81376
2017-08-07T12:12:42.639Z,114464
2017-08-07T12:13:45.520Z,50464
2017-08-07T12:14:48.066Z,141440
2017-08-07T12:15:50.954Z,129952
2017-08-07T12:16:53.489Z,118976
2017-08-07T12:17:56.394Z,110144
2017-08-07T12:18:58.932Z,108320
2017-08-07T12:20:01.465Z,112384
2017-08-07T12:21:04.356Z,118912
2017-08-07T12:22:07.262Z,118432
2017-08-07T12:23:09.789Z,119648
2017-08-07T12:24:12.385Z,121888
2017-08-07T12:25:14.904Z,112512
2017-08-07T12:26:18.805Z,103968
2017-08-07T12:27:21.353Z,97120
2017-08-07T12:28:24.260Z,90880
2017-08-07T12:29:26.796Z,87840
2017-08-07T12:30:29.665Z,52608
2017-08-07T12:31:32.197Z,109344
2017-08-07T12:32:34.748Z,111296
2017-08-07T12:33:37.601Z,98080
2017-08-07T12:34:40.128Z,52960
2017-08-07T12:35:43.011Z,77120
2017-08-07T12:36:46.182Z,27840
2017-08-07T12:37:49.052Z,26592
2017-08-07T12:38:51.591Z,26560
2017-08-07T12:39:54.464Z,27456
2017-08-07T12:40:57.681Z,30688
2017-08-07T12:42:00.227Z,99520
2017-08-07T12:43:03.091Z,109696
2017-08-07T12:44:05.624Z,51552
2017-08-07T12:45:08.205Z,36992
2017-08-07T12:46:11.110Z,35296
2017-08-07T12:47:13.996Z,34080
2017-08-07T12:48:16.872Z,69856
2017-08-07T12:49:19.410Z,37728
2017-08-07T12:50:22.341Z,36448
2017-08-07T12:51:24.864Z,37344
2017-08-07T12:52:27.385Z,72704
2017-08-07T12:53:29.919Z,121568
2017-08-07T12:54:32.458Z,114176
2017-08-07T12:55:35.327Z,104128
2017-08-07T12:56:37.871Z,103744
2017-08-07T12:57:40.386Z,97664
2017-08-07T12:58:42.930Z,98624
2017-08-07T12:59:45.490Z,94080
2017-08-07T13:00:48.026Z,102080
2017-08-07T13:01:50.900Z,29600
2017-08-07T13:02:53.467Z,25728
2017-08-07T13:03:56.672Z,23776
2017-08-07T13:04:59.880Z,22048
2017-08-07T13:06:03.123Z,22816
2017-08-07T13:07:05.643Z,22752
2017-08-07T13:08:08.187Z,22656
2017-08-07T13:09:11.070Z,23584
2017-08-07T13:10:13.610Z,25472
2017-08-07T13:11:16.135Z,100544
2017-08-07T13:12:18.692Z,97120
2017-08-07T13:13:21.214Z,98784
2017-08-07T13:14:24.442Z,97248
2017-08-07T13:15:27.315Z,48800
2017-08-07T13:16:29.851Z,99008
2017-08-07T13:17:32.418Z,96896
2017-08-07T13:18:35.978Z,97888
2017-08-07T13:19:38.844Z,97376
2017-08-07T13:20:41.389Z,107168
2017-08-07T13:21:43.947Z,44224
2017-08-07T13:22:46.815Z,76576
2017-08-07T13:23:49.708Z,83040
2017-08-07T13:24:52.593Z,116256
2017-08-07T13:25:55.134Z,120512
2017-08-07T13:26:57.666Z,124352
2017-08-07T13:28:00.223Z,121280
2017-08-07T13:29:03.077Z,52352
2017-08-07T13:30:05.622Z,122912
2017-08-07T13:31:08.596Z,116416
2017-08-07T13:32:11.139Z,56832
2017-08-07T13:33:13.694Z,26912
2017-08-07T13:34:16.226Z,117280
2017-08-07T13:35:19.425Z,112224
2017-08-07T13:36:21.953Z,123040
2017-08-07T13:37:24.825Z,41696
2017-08-07T13:38:27.361Z,28672
2017-08-07T13:39:29.879Z,27840
2017-08-07T13:40:32.485Z,27072
2017-08-07T13:41:35.019Z,113472
2017-08-07T13:42:37.973Z,35104
2017-08-07T13:43:41.184Z,110464
2017-08-07T13:44:43.742Z,23040
2017-08-07T13:45:46.280Z,20480
2017-08-07T13:46:49.513Z,19936
2017-08-07T13:47:52.048Z,31904
2017-08-07T13:48:54.592Z,42400
2017-08-07T13:49:57.117Z,23840
2017-08-07T13:51:00.040Z,101920
2017-08-07T13:52:03.259Z,91392
2017-08-07T13:53:06.090Z,85184
2017-08-07T13:54:08.626Z,27008
2017-08-07T13:55:11.846Z,25280
2017-08-07T13:56:14.713Z,24000
2017-08-07T13:57:17.235Z,20864